sensor_id;sensor_type;location;lat;lon;timestamp;pressure;altitude;pressure_sealevel;temperature;humidity
16595;BME280;8410;52.532;13.336;2023-04-29T00:01:52;100512.91;;;15.93;71.57
16595;BME280;8410;52.532;13.336;2023-04-29T00:04:24;100501.84;;;15.76;72.19
16595;BME280;8410;52.532;13.336;2023-04-29T00:06:52;100495.28;;;15.46;72.54
16595;BME280;8410;52.532;13.336;2023-04-29T00:09:20;100488.63;;;15.21;74.49
16595;BME280;8410;52.532;13.336;2023-04-29T00:11:47;100484.75;;;15.58;74.37
16595;BME280;8410;52.532;13.336;2023-04-29T00:14:17;100477.47;;;15.13;74.42
16595;BME280;8410;52.532;13.336;2023-04-29T00:16:44;100475.25;;;15.58;74.22
16595;BME280;8410;52.532;13.336;2023-04-29T00:19:12;100483.53;;;15.88;73.83
16595;BME280;8410;52.532;13.336;2023-04-29T00:21:39;100480.81;;;15.97;73.35
16595;BME280;8410;52.532;13.336;2023-04-29T00:24:06;100485.16;;;15.95;73.70
16595;BME280;8410;52.532;13.336;2023-04-29T00:26:34;100493.78;;;15.97;73.08
16595;BME280;8410;52.532;13.336;2023-04-29T00:29:01;100487.66;;;16.03;73.39
16595;BME280;8410;52.532;13.336;2023-04-29T00:31:30;100480.81;;;15.97;73.88
16595;BME280;8410;52.532;13.336;2023-04-29T00:33:58;100486.69;;;16.08;73.42
16595;BME280;8410;52.532;13.336;2023-04-29T00:36:25;100478.03;;;16.09;73.65
16595;BME280;8410;52.532;13.336;2023-04-29T00:38:53;100482.03;;;15.72;74.25
16595;BME280;8410;52.532;13.336;2023-04-29T00:41:21;100487.75;;;15.95;72.53
16595;BME280;8410;52.532;13.336;2023-04-29T00:43:48;100483.44;;;15.94;73.50
16595;BME280;8410;52.532;13.336;2023-04-29T00:46:15;100491.19;;;15.97;73.81
16595;BME280;8410;52.532;13.336;2023-04-29T00:48:44;100479.19;;;15.88;74.12
16595;BME280;8410;52.532;13.336;2023-04-29T00:51:12;100490.91;;;15.49;74.33
16595;BME280;8410;52.532;13.336;2023-04-29T00:53:40;100488.88;;;15.76;73.42
16595;BME280;8410;52.532;13.336;2023-04-29T00:56:08;100486.88;;;15.96;74.04
16595;BME280;8410;52.532;13.336;2023-04-29T00:58:36;100494.22;;;15.60;74.93
16595;BME280;8410;52.532;13.336;2023-04-29T01:01:04;100494.88;;;15.82;73.74
16595;BME280;8410;52.532;13.336;2023-04-29T01:03:32;100474.66;;;15.33;74.42
16595;BME280;8410;52.532;13.336;2023-04-29T01:06:07;100462.44;;;14.58;78.37
16595;BME280;8410;52.532;13.336;2023-04-29T01:08:42;100465.69;;;14.82;79.07
16595;BME280;8410;52.532;13.336;2023-04-29T01:11:11;100443.84;;;15.04;78.80
16595;BME280;8410;52.532;13.336;2023-04-29T01:13:42;100458.13;;;15.42;79.30
16595;BME280;8410;52.532;13.336;2023-04-29T01:16:20;100479.72;;;15.44;80.46
16595;BME280;8410;52.532;13.336;2023-04-29T01:18:53;100482.41;;;15.38;81.69
16595;BME280;8410;52.532;13.336;2023-04-29T01:21:23;100476.44;;;15.28;82.40
16595;BME280;8410;52.532;13.336;2023-04-29T01:23:52;100480.88;;;15.18;82.98
16595;BME280;8410;52.532;13.336;2023-04-29T01:26:22;100486.25;;;15.00;84.65
16595;BME280;8410;52.532;13.336;2023-04-29T01:28:53;100491.41;;;15.03;85.34
16595;BME280;8410;52.532;13.336;2023-04-29T01:31:27;100487.75;;;15.24;83.33
16595;BME280;8410;52.532;13.336;2023-04-29T01:34:04;100481.53;;;14.42;85.17
16595;BME280;8410;52.532;13.336;2023-04-29T01:36:42;100469.13;;;13.43;91.55
16595;BME280;8410;52.532;13.336;2023-04-29T01:39:15;100467.97;;;14.09;91.78
16595;BME280;8410;52.532;13.336;2023-04-29T01:41:50;100457.03;;;14.83;87.58
16595;BME280;8410;52.532;13.336;2023-04-29T01:44:22;100453.41;;;14.99;86.41
16595;BME280;8410;52.532;13.336;2023-04-29T01:46:52;100463.63;;;15.14;85.41
16595;BME280;8410;52.532;13.336;2023-04-29T01:49:20;100462.84;;;15.06;85.51
16595;BME280;8410;52.532;13.336;2023-04-29T01:51:47;100471.69;;;14.87;85.82
16595;BME280;8410;52.532;13.336;2023-04-29T01:54:16;100467.13;;;15.13;86.75
16595;BME280;8410;52.532;13.336;2023-04-29T01:56:44;100470.06;;;14.76;85.60
16595;BME280;8410;52.532;13.336;2023-04-29T01:59:12;100463.88;;;13.66;90.65
16595;BME280;8410;52.532;13.336;2023-04-29T02:01:39;100467.63;;;14.58;89.60
16595;BME280;8410;52.532;13.336;2023-04-29T02:04:07;100468.16;;;14.94;87.39
16595;BME280;8410;52.532;13.336;2023-04-29T02:06:34;100474.31;;;14.81;86.75
16595;BME280;8410;52.532;13.336;2023-04-29T02:09:02;100469.25;;;14.71;87.37
16595;BME280;8410;52.532;13.336;2023-04-29T02:11:31;100468.94;;;15.05;86.28
16595;BME280;8410;52.532;13.336;2023-04-29T02:13:58;100461.13;;;15.08;86.60
16595;BME280;8410;52.532;13.336;2023-04-29T02:16:26;100454.31;;;14.96;86.71
16595;BME280;8410;52.532;13.336;2023-04-29T02:18:53;100457.25;;;14.58;87.16
16595;BME280;8410;52.532;13.336;2023-04-29T02:21:20;100460.19;;;14.12;88.66
16595;BME280;8410;52.532;13.336;2023-04-29T02:23:48;100457.28;;;14.55;88.49
16595;BME280;8410;52.532;13.336;2023-04-29T02:26:15;100449.56;;;14.46;89.60
16595;BME280;8410;52.532;13.336;2023-04-29T02:28:44;100452.75;;;14.80;86.75
16595;BME280;8410;52.532;13.336;2023-04-29T02:31:12;100451.25;;;14.53;87.31
16595;BME280;8410;52.532;13.336;2023-04-29T02:33:39;100448.53;;;14.68;89.05
16595;BME280;8410;52.532;13.336;2023-04-29T02:36:07;100450.13;;;14.86;87.87
16595;BME280;8410;52.532;13.336;2023-04-29T02:38:34;100451.63;;;15.04;88.14
16595;BME280;8410;52.532;13.336;2023-04-29T02:41:02;100448.91;;;14.22;90.05
16595;BME280;8410;52.532;13.336;2023-04-29T02:43:29;100449.16;;;14.93;88.57
16595;BME280;8410;52.532;13.336;2023-04-29T02:45:58;100444.78;;;15.00;88.04
16595;BME280;8410;52.532;13.336;2023-04-29T02:48:26;100444.78;;;15.00;87.15
16595;BME280;8410;52.532;13.336;2023-04-29T02:50:53;100444.16;;;14.75;88.79
16595;BME280;8410;52.532;13.336;2023-04-29T02:53:21;100445.56;;;15.08;86.76
16595;BME280;8410;52.532;13.336;2023-04-29T02:55:48;100445.53;;;15.11;87.56
16595;BME280;8410;52.532;13.336;2023-04-29T02:58:16;100449.09;;;15.03;87.89
16595;BME280;8410;52.532;13.336;2023-04-29T03:00:43;100449.81;;;15.12;87.45
16595;BME280;8410;52.532;13.336;2023-04-29T03:03:12;100439.44;;;15.12;87.26
16595;BME280;8410;52.532;13.336;2023-04-29T03:05:40;100448.06;;;15.14;87.39
16595;BME280;8410;52.532;13.336;2023-04-29T03:08:07;100440.50;;;14.96;87.35
16595;BME280;8410;52.532;13.336;2023-04-29T03:10:35;100445.06;;;14.69;88.47
16595;BME280;8410;52.532;13.336;2023-04-29T03:13:07;100444.84;;;14.91;89.27
16595;BME280;8410;52.532;13.336;2023-04-29T03:15:34;100439.63;;;14.97;88.32
16595;BME280;8410;52.532;13.336;2023-04-29T03:18:02;100442.88;;;15.14;87.79
16595;BME280;8410;52.532;13.336;2023-04-29T03:20:31;100445.69;;;13.80;91.17
16595;BME280;8410;52.532;13.336;2023-04-29T03:22:59;100445.56;;;14.02;97.22
16595;BME280;8410;52.532;13.336;2023-04-29T03:25:27;100445.72;;;13.71;94.87
16595;BME280;8410;52.532;13.336;2023-04-29T03:27:55;100436.63;;;14.43;96.41
16595;BME280;8410;52.532;13.336;2023-04-29T03:30:22;100432.81;;;14.87;92.79
16595;BME280;8410;52.532;13.336;2023-04-29T03:32:50;100433.72;;;14.83;91.00
16595;BME280;8410;52.532;13.336;2023-04-29T03:35:17;100440.06;;;14.45;91.99
16595;BME280;8410;52.532;13.336;2023-04-29T03:37:46;100434.69;;;14.69;89.77
16595;BME280;8410;52.532;13.336;2023-04-29T03:40:14;100443.41;;;14.65;90.35
16595;BME280;8410;52.532;13.336;2023-04-29T03:42:41;100432.88;;;14.84;89.56
16595;BME280;8410;52.532;13.336;2023-04-29T03:45:09;100436.59;;;14.46;92.13
16595;BME280;8410;52.532;13.336;2023-04-29T03:47:38;100431.09;;;14.86;91.57
16595;BME280;8410;52.532;13.336;2023-04-29T03:50:06;100435.75;;;14.45;90.40
16595;BME280;8410;52.532;13.336;2023-04-29T03:52:34;100439.91;;;14.66;91.33
16595;BME280;8410;52.532;13.336;2023-04-29T03:55:04;100437.25;;;14.74;90.21
16595;BME280;8410;52.532;13.336;2023-04-29T03:57:32;100434.66;;;14.74;91.17
16595;BME280;8410;52.532;13.336;2023-04-29T03:59:59;100427.78;;;14.71;91.18
16595;BME280;8410;52.532;13.336;2023-04-29T04:02:27;100441.44;;;14.86;90.80
16595;BME280;8410;52.532;13.336;2023-04-29T04:04:55;100439.69;;;14.91;90.82
16595;BME280;8410;52.532;13.336;2023-04-29T04:07:24;100439.22;;;14.44;91.57
16595;BME280;8410;52.532;13.336;2023-04-29T04:09:51;100455.84;;;14.14;94.84
16595;BME280;8410;52.532;13.336;2023-04-29T04:12:21;100448.50;;;14.71;93.72
16595;BME280;8410;52.532;13.336;2023-04-29T04:14:48;100444.78;;;15.00;91.20
16595;BME280;8410;52.532;13.336;2023-04-29T04:17:16;100446.72;;;14.78;91.64
16595;BME280;8410;52.532;13.336;2023-04-29T04:19:43;100451.81;;;14.87;91.39
16595;BME280;8410;52.532;13.336;2023-04-29T04:22:11;100439.63;;;14.97;90.22
16595;BME280;8410;52.532;13.336;2023-04-29T04:24:38;100451.59;;;15.07;91.50
16595;BME280;8410;52.532;13.336;2023-04-29T04:27:06;100439.41;;;15.15;89.94
16595;BME280;8410;52.532;13.336;2023-04-29T04:29:35;100452.72;;;14.83;91.45
16595;BME280;8410;52.532;13.336;2023-04-29T04:32:02;100452.81;;;14.72;92.72
16595;BME280;8410;52.532;13.336;2023-04-29T04:34:30;100444.78;;;15.00;91.81
16595;BME280;8410;52.532;13.336;2023-04-29T04:36:58;100437.66;;;15.17;91.24
16595;BME280;8410;52.532;13.336;2023-04-29T04:39:25;100452.31;;;15.21;89.85
16595;BME280;8410;52.532;13.336;2023-04-29T04:41:52;100449.91;;;15.06;91.23
16595;BME280;8410;52.532;13.336;2023-04-29T04:44:21;100453.53;;;14.90;92.92
16595;BME280;8410;52.532;13.336;2023-04-29T04:46:50;100448.00;;;15.24;90.88
16595;BME280;8410;52.532;13.336;2023-04-29T04:49:18;100451.63;;;15.06;91.89
16595;BME280;8410;52.532;13.336;2023-04-29T04:51:45;100456.28;;;14.73;91.99
16595;BME280;8410;52.532;13.336;2023-04-29T04:54:13;100452.59;;;14.97;92.72
16595;BME280;8410;52.532;13.336;2023-04-29T04:56:40;100452.38;;;15.17;92.85
16595;BME280;8410;52.532;13.336;2023-04-29T04:59:07;100450.53;;;15.27;92.21
16595;BME280;8410;52.532;13.336;2023-04-29T05:01:35;100462.50;;;15.38;91.40
16595;BME280;8410;52.532;13.336;2023-04-29T05:04:04;100458.38;;;15.20;91.45
16595;BME280;8410;52.532;13.336;2023-04-29T05:06:32;100457.44;;;15.28;91.87
16595;BME280;8410;52.532;13.336;2023-04-29T05:08:59;100460.09;;;15.21;92.53
16595;BME280;8410;52.532;13.336;2023-04-29T05:11:27;100460.91;;;15.25;92.70
16595;BME280;8410;52.532;13.336;2023-04-29T05:13:54;100453.94;;;15.30;92.06
16595;BME280;8410;52.532;13.336;2023-04-29T05:16:21;100458.56;;;15.02;92.64
16595;BME280;8410;52.532;13.336;2023-04-29T05:18:49;100457.63;;;15.09;94.50
16595;BME280;8410;52.532;13.336;2023-04-29T05:21:18;100462.84;;;15.08;93.88
16595;BME280;8410;52.532;13.336;2023-04-29T05:23:45;100461.78;;;15.27;92.99
16595;BME280;8410;52.532;13.336;2023-04-29T05:26:12;100457.44;;;15.29;93.38
16595;BME280;8410;52.532;13.336;2023-04-29T05:28:40;100470.25;;;15.41;93.06
16595;BME280;8410;52.532;13.336;2023-04-29T05:31:07;100471.94;;;15.44;93.19
16595;BME280;8410;52.532;13.336;2023-04-29T05:33:35;100467.59;;;15.44;91.82
16595;BME280;8410;52.532;13.336;2023-04-29T05:36:02;100472.84;;;15.41;92.74
16595;BME280;8410;52.532;13.336;2023-04-29T05:38:31;100471.84;;;15.50;93.62
16595;BME280;8410;52.532;13.336;2023-04-29T05:40:59;100476.00;;;15.65;92.67
16595;BME280;8410;52.532;13.336;2023-04-29T05:43:26;100468.31;;;15.57;92.17
16595;BME280;8410;52.532;13.336;2023-04-29T05:45:54;100473.41;;;15.63;91.94
16595;BME280;8410;52.532;13.336;2023-04-29T05:48:22;100473.41;;;15.70;92.54
16595;BME280;8410;52.532;13.336;2023-04-29T05:50:50;100482.19;;;15.56;92.17
16595;BME280;8410;52.532;13.336;2023-04-29T05:53:17;100482.84;;;15.74;92.59
16595;BME280;8410;52.532;13.336;2023-04-29T05:55:46;100476.88;;;15.65;92.66
16595;BME280;8410;52.532;13.336;2023-04-29T05:58:16;100480.44;;;15.55;91.79
16595;BME280;8410;52.532;13.336;2023-04-29T06:00:44;100476.13;;;15.56;93.16
16595;BME280;8410;52.532;13.336;2023-04-29T06:03:11;100483.25;;;15.40;93.56
16595;BME280;8410;52.532;13.336;2023-04-29T06:05:39;100487.38;;;15.56;93.76
16595;BME280;8410;52.532;13.336;2023-04-29T06:08:07;100484.91;;;15.46;93.32
16595;BME280;8410;52.532;13.336;2023-04-29T06:10:35;100487.41;;;15.53;92.99
16595;BME280;8410;52.532;13.336;2023-04-29T06:13:04;100490.81;;;15.57;94.12
16595;BME280;8410;52.532;13.336;2023-04-29T06:15:32;100493.28;;;15.71;93.32
16595;BME280;8410;52.532;13.336;2023-04-29T06:17:59;100493.31;;;15.63;93.90
16595;BME280;8410;52.532;13.336;2023-04-29T06:20:26;100495.00;;;15.69;92.67
16595;BME280;8410;52.532;13.336;2023-04-29T06:22:54;100493.19;;;15.78;92.54
16595;BME280;8410;52.532;13.336;2023-04-29T06:25:21;100498.72;;;15.48;94.29
16595;BME280;8410;52.532;13.336;2023-04-29T06:27:49;100504.44;;;14.97;94.56
16595;BME280;8410;52.532;13.336;2023-04-29T06:30:18;100511.25;;;15.04;97.21
16595;BME280;8410;52.532;13.336;2023-04-29T06:32:46;100515.00;;;14.72;99.51
16595;BME280;8410;52.532;13.336;2023-04-29T06:35:13;100515.38;;;14.17;100.00
16595;BME280;8410;52.532;13.336;2023-04-29T06:37:41;100524.06;;;14.02;100.00
16595;BME280;8410;52.532;13.336;2023-04-29T06:40:09;100521.50;;;13.98;100.00
16595;BME280;8410;52.532;13.336;2023-04-29T06:42:37;100531.00;;;13.97;100.00
16595;BME280;8410;52.532;13.336;2023-04-29T06:45:06;100529.22;;;14.10;100.00
16595;BME280;8410;52.532;13.336;2023-04-29T06:47:35;100533.38;;;14.32;100.00
16595;BME280;8410;52.532;13.336;2023-04-29T06:50:02;100542.19;;;14.07;100.00
16595;BME280;8410;52.532;13.336;2023-04-29T06:52:30;100542.66;;;14.69;100.00
16595;BME280;8410;52.532;13.336;2023-04-29T06:54:58;100540.31;;;14.33;100.00
16595;BME280;8410;52.532;13.336;2023-04-29T06:57:26;100545.53;;;14.23;100.00
16595;BME280;8410;52.532;13.336;2023-04-29T06:59:53;100549.88;;;14.16;100.00
16595;BME280;8410;52.532;13.336;2023-04-29T07:02:21;100548.47;;;13.18;100.00
16595;BME280;8410;52.532;13.336;2023-04-29T07:04:50;100556.22;;;13.11;100.00
16595;BME280;8410;52.532;13.336;2023-04-29T07:07:18;100556.22;;;12.95;100.00
16595;BME280;8410;52.532;13.336;2023-04-29T07:09:45;100559.69;;;12.76;100.00
16595;BME280;8410;52.532;13.336;2023-04-29T07:12:13;100574.31;;;12.98;100.00
16595;BME280;8410;52.532;13.336;2023-04-29T07:14:41;100576.03;;;13.35;100.00
16595;BME280;8410;52.532;13.336;2023-04-29T07:17:08;100575.19;;;12.94;100.00
16595;BME280;8410;52.532;13.336;2023-04-29T07:19:39;100572.56;;;13.07;100.00
16595;BME280;8410;52.532;13.336;2023-04-29T07:22:08;100581.16;;;12.50;100.00
16595;BME280;8410;52.532;13.336;2023-04-29T07:24:35;100587.19;;;12.49;100.00
16595;BME280;8410;52.532;13.336;2023-04-29T07:27:03;100588.94;;;12.60;100.00
16595;BME280;8410;52.532;13.336;2023-04-29T07:29:31;100585.50;;;12.97;100.00
16595;BME280;8410;52.532;13.336;2023-04-29T07:31:59;100597.53;;;12.55;100.00
16595;BME280;8410;52.532;13.336;2023-04-29T07:34:26;100599.22;;;12.50;100.00
16595;BME280;8410;52.532;13.336;2023-04-29T07:36:54;100603.50;;;12.39;100.00
16595;BME280;8410;52.532;13.336;2023-04-29T07:39:23;100604.47;;;12.78;100.00
16595;BME280;8410;52.532;13.336;2023-04-29T07:41:51;100612.22;;;12.98;100.00
16595;BME280;8410;52.532;13.336;2023-04-29T07:44:18;100607.94;;;13.35;100.00
16595;BME280;8410;52.532;13.336;2023-04-29T07:46:47;100614.81;;;13.45;100.00
16595;BME280;8410;52.532;13.336;2023-04-29T07:49:14;100629.44;;;12.90;100.00
16595;BME280;8410;52.532;13.336;2023-04-29T07:51:42;100629.41;;;12.70;100.00
16595;BME280;8410;52.532;13.336;2023-04-29T07:54:10;100636.31;;;12.91;100.00
16595;BME280;8410;52.532;13.336;2023-04-29T07:56:38;100638.78;;;12.34;100.00
16595;BME280;8410;52.532;13.336;2023-04-29T07:59:06;100638.00;;;12.66;100.00
16595;BME280;8410;52.532;13.336;2023-04-29T08:01:33;100642.22;;;12.36;100.00
16595;BME280;8410;52.532;13.336;2023-04-29T08:04:01;100654.34;;;12.54;100.00
16595;BME280;8410;52.532;13.336;2023-04-29T08:06:28;100664.44;;;12.00;100.00
16595;BME280;8410;52.532;13.336;2023-04-29T08:08:56;100662.81;;;12.27;100.00
16595;BME280;8410;52.532;13.336;2023-04-29T08:11:23;100664.66;;;12.55;100.00
16595;BME280;8410;52.532;13.336;2023-04-29T08:13:53;100674.91;;;12.37;100.00
16595;BME280;8410;52.532;13.336;2023-04-29T08:16:22;100677.47;;;12.25;100.00
16595;BME280;8410;52.532;13.336;2023-04-29T08:18:56;100683.47;;;12.25;100.00
16595;BME280;8410;52.532;13.336;2023-04-29T08:21:25;100692.94;;;12.22;100.00
16595;BME280;8410;52.532;13.336;2023-04-29T08:23:59;100685.22;;;12.25;100.00
16595;BME280;8410;52.532;13.336;2023-04-29T08:26:30;100693.09;;;12.57;100.00
16595;BME280;8410;52.532;13.336;2023-04-29T08:29:05;100699.09;;;12.51;100.00
16595;BME280;8410;52.532;13.336;2023-04-29T08:31:34;100706.91;;;12.82;100.00
16595;BME280;8410;52.532;13.336;2023-04-29T08:34:11;100710.31;;;12.64;100.00
16595;BME280;8410;52.532;13.336;2023-04-29T08:36:50;100717.06;;;12.31;100.00
16595;BME280;8410;52.532;13.336;2023-04-29T08:39:27;100709.41;;;12.53;100.00
16595;BME280;8410;52.532;13.336;2023-04-29T08:41:57;100723.22;;;12.60;100.00
16595;BME280;8410;52.532;13.336;2023-04-29T08:44:35;100726.66;;;12.60;100.00
16595;BME280;8410;52.532;13.336;2023-04-29T08:47:20;100726.69;;;12.65;100.00
16595;BME280;8410;52.532;13.336;2023-04-29T08:49:52;100728.38;;;12.63;100.00
16595;BME280;8410;52.532;13.336;2023-04-29T08:52:24;100745.56;;;12.51;100.00
16595;BME280;8410;52.532;13.336;2023-04-29T08:55:04;100736.97;;;12.55;100.00
16595;BME280;8410;52.532;13.336;2023-04-29T08:57:38;100742.34;;;14.03;100.00
16595;BME280;8410;52.532;13.336;2023-04-29T09:00:24;100737.94;;;14.40;92.57
16595;BME280;8410;52.532;13.336;2023-04-29T09:02:56;100750.44;;;15.34;90.88
16595;BME280;8410;52.532;13.336;2023-04-29T09:05:33;100759.38;;;14.90;87.78
16595;BME280;8410;52.532;13.336;2023-04-29T09:08:12;100763.69;;;14.88;91.27
16595;BME280;8410;52.532;13.336;2023-04-29T09:10:50;100770.78;;;14.26;91.37
16595;BME280;8410;52.532;13.336;2023-04-29T09:13:27;100772.09;;;15.30;86.24
16595;BME280;8410;52.532;13.336;2023-04-29T09:15:59;100771.16;;;15.37;86.85
16595;BME280;8410;52.532;13.336;2023-04-29T09:18:49;100776.50;;;15.15;84.82
16595;BME280;8410;52.532;13.336;2023-04-29T09:21:19;100790.69;;;13.64;90.79
16595;BME280;8410;52.532;13.336;2023-04-29T09:23:56;100793.84;;;12.69;95.76
16595;BME280;8410;52.532;13.336;2023-04-29T09:26:35;100796.91;;;12.07;100.00
16595;BME280;8410;52.532;13.336;2023-04-29T09:29:14;100804.06;;;12.43;100.00
16595;BME280;8410;52.532;13.336;2023-04-29T09:31:52;100797.13;;;12.39;100.00
16595;BME280;8410;52.532;13.336;2023-04-29T09:34:31;100815.81;;;12.01;100.00
16595;BME280;8410;52.532;13.336;2023-04-29T09:37:03;100814.78;;;11.85;100.00
16595;BME280;8410;52.532;13.336;2023-04-29T09:39:37;100824.88;;;11.61;100.00
16595;BME280;8410;52.532;13.336;2023-04-29T09:42:13;100828.59;;;11.87;100.00
16595;BME280;8410;52.532;13.336;2023-04-29T09:44:42;100830.94;;;11.66;100.00
16595;BME280;8410;52.532;13.336;2023-04-29T09:47:12;100838.63;;;11.61;100.00
16595;BME280;8410;52.532;13.336;2023-04-29T09:49:50;100838.66;;;11.63;100.00
16595;BME280;8410;52.532;13.336;2023-04-29T09:52:22;100844.53;;;11.48;100.00
16595;BME280;8410;52.532;13.336;2023-04-29T09:55:03;100851.50;;;11.58;100.00
16595;BME280;8410;52.532;13.336;2023-04-29T09:57:40;100852.28;;;11.51;100.00
16595;BME280;8410;52.532;13.336;2023-04-29T10:00:14;100865.09;;;11.43;100.00
16595;BME280;8410;52.532;13.336;2023-04-29T10:02:47;100859.97;;;11.45;100.00
16595;BME280;8410;52.532;13.336;2023-04-29T10:05:18;100865.50;;;11.85;100.00
16595;BME280;8410;52.532;13.336;2023-04-29T10:07:47;100865.59;;;11.91;100.00
16595;BME280;8410;52.532;13.336;2023-04-29T10:10:17;100862.94;;;11.85;100.00
16595;BME280;8410;52.532;13.336;2023-04-29T10:12:48;100871.19;;;12.46;100.00
16595;BME280;8410;52.532;13.336;2023-04-29T10:15:28;100875.59;;;11.60;100.00
16595;BME280;8410;52.532;13.336;2023-04-29T10:18:12;100879.94;;;11.67;100.00
16595;BME280;8410;52.532;13.336;2023-04-29T10:20:46;100881.00;;;11.85;100.00
16595;BME280;8410;52.532;13.336;2023-04-29T10:23:16;100881.41;;;12.31;100.00
16595;BME280;8410;52.532;13.336;2023-04-29T10:25:48;100877.28;;;12.54;100.00
16595;BME280;8410;52.532;13.336;2023-04-29T10:28:30;100879.72;;;12.33;97.63
16595;BME280;8410;52.532;13.336;2023-04-29T10:31:05;100893.16;;;11.95;100.00
16595;BME280;8410;52.532;13.336;2023-04-29T10:33:50;100891.25;;;11.79;99.89
16595;BME280;8410;52.532;13.336;2023-04-29T10:36:32;100899.28;;;12.06;98.78
16595;BME280;8410;52.532;13.336;2023-04-29T10:39:24;100896.72;;;12.09;98.51
16595;BME280;8410;52.532;13.336;2023-04-29T10:41:56;100901.84;;;12.03;99.57
16595;BME280;8410;52.532;13.336;2023-04-29T10:44:28;100907.13;;;12.20;98.52
16595;BME280;8410;52.532;13.336;2023-04-29T10:47:20;100910.59;;;12.24;97.79
16595;BME280;8410;52.532;13.336;2023-04-29T10:50:06;100909.56;;;12.05;99.69
16595;BME280;8410;52.532;13.336;2023-04-29T10:52:52;100918.13;;;11.98;99.08
16595;BME280;8410;52.532;13.336;2023-04-29T10:55:24;100914.06;;;12.26;99.41
16595;BME280;8410;52.532;13.336;2023-04-29T10:57:58;100915.22;;;12.62;96.17
16595;BME280;8410;52.532;13.336;2023-04-29T11:00:27;100917.94;;;12.88;93.78
16595;BME280;8410;52.532;13.336;2023-04-29T11:02:55;100914.41;;;12.75;93.92
16595;BME280;8410;52.532;13.336;2023-04-29T11:05:31;100918.75;;;12.79;93.78
16595;BME280;8410;52.532;13.336;2023-04-29T11:08:08;100917.09;;;12.90;93.33
16595;BME280;8410;52.532;13.336;2023-04-29T11:10:41;100918.19;;;13.26;91.39
16595;BME280;8410;52.532;13.336;2023-04-29T11:13:27;100922.94;;;12.63;93.11
16595;BME280;8410;52.532;13.336;2023-04-29T11:16:03;100918.66;;;12.62;92.62
16595;BME280;8410;52.532;13.336;2023-04-29T11:18:35;100918.19;;;13.32;89.59
16595;BME280;8410;52.532;13.336;2023-04-29T11:21:14;100927.66;;;13.27;89.58
16595;BME280;8410;52.532;13.336;2023-04-29T11:23:50;100932.78;;;13.25;90.07
16595;BME280;8410;52.532;13.336;2023-04-29T11:26:19;100929.53;;;13.82;87.00
16595;BME280;8410;52.532;13.336;2023-04-29T11:28:50;100938.19;;;13.79;85.78
16595;BME280;8410;52.532;13.336;2023-04-29T11:31:19;100935.53;;;13.61;87.08
16595;BME280;8410;52.532;13.336;2023-04-29T11:33:52;100938.09;;;13.58;87.38
16595;BME280;8410;52.532;13.336;2023-04-29T11:36:29;100946.72;;;13.48;86.41
16595;BME280;8410;52.532;13.336;2023-04-29T11:39:03;100946.66;;;13.38;88.25
16595;BME280;8410;52.532;13.336;2023-04-29T11:41:35;100952.78;;;13.62;86.59
16595;BME280;8410;52.532;13.336;2023-04-29T11:44:11;100956.09;;;13.33;85.93
16595;BME280;8410;52.532;13.336;2023-04-29T11:46:43;100955.38;;;13.59;87.03
16595;BME280;8410;52.532;13.336;2023-04-29T11:49:17;100955.38;;;13.62;86.74
16595;BME280;8410;52.532;13.336;2023-04-29T11:51:59;100956.34;;;14.21;84.77
16595;BME280;8410;52.532;13.336;2023-04-29T11:54:32;100964.97;;;13.98;84.54
16595;BME280;8410;52.532;13.336;2023-04-29T11:57:03;100956.34;;;14.19;84.99
16595;BME280;8410;52.532;13.336;2023-04-29T11:59:31;100965.91;;;14.57;82.33
16595;BME280;8410;52.532;13.336;2023-04-29T12:02:01;100969.31;;;14.39;83.79
16595;BME280;8410;52.532;13.336;2023-04-29T12:04:44;100970.13;;;13.97;85.08
16595;BME280;8410;52.532;13.336;2023-04-29T12:07:18;100984.75;;;13.78;86.81
16595;BME280;8410;52.532;13.336;2023-04-29T12:09:49;100983.91;;;13.89;87.13
16595;BME280;8410;52.532;13.336;2023-04-29T12:12:21;100983.13;;;14.17;84.59
16595;BME280;8410;52.532;13.336;2023-04-29T12:14:52;100989.78;;;13.42;88.22
16595;BME280;8410;52.532;13.336;2023-04-29T12:17:21;100992.38;;;13.49;87.65
16595;BME280;8410;52.532;13.336;2023-04-29T12:19:53;100985.59;;;13.81;87.12
16595;BME280;8410;52.532;13.336;2023-04-29T12:22:30;100992.44;;;13.65;88.49
16595;BME280;8410;52.532;13.336;2023-04-29T12:24:58;100997.53;;;13.39;89.19
16595;BME280;8410;52.532;13.336;2023-04-29T12:27:29;100992.53;;;13.92;87.78
16595;BME280;8410;52.532;13.336;2023-04-29T12:30:05;100989.06;;;13.74;87.03
16595;BME280;8410;52.532;13.336;2023-04-29T12:32:34;100994.28;;;13.99;86.08
16595;BME280;8410;52.532;13.336;2023-04-29T12:35:05;100992.59;;;14.16;84.37
16595;BME280;8410;52.532;13.336;2023-04-29T12:37:49;101001.22;;;14.12;85.09
16595;BME280;8410;52.532;13.336;2023-04-29T12:40:19;101002.94;;;14.07;84.77
16595;BME280;8410;52.532;13.336;2023-04-29T12:42:49;101001.19;;;13.97;85.03
16595;BME280;8410;52.532;13.336;2023-04-29T12:45:28;101004.69;;;14.14;83.69
16595;BME280;8410;52.532;13.336;2023-04-29T12:47:57;100998.59;;;13.97;83.67
16595;BME280;8410;52.532;13.336;2023-04-29T12:50:29;101002.81;;;13.64;86.13
16595;BME280;8410;52.532;13.336;2023-04-29T12:53:01;101011.53;;;13.95;84.91
16595;BME280;8410;52.532;13.336;2023-04-29T12:55:31;101004.66;;;14.05;84.54
16595;BME280;8410;52.532;13.336;2023-04-29T12:58:05;101007.28;;;14.14;84.49
16595;BME280;8410;52.532;13.336;2023-04-29T13:00:38;101008.19;;;14.51;83.48
16595;BME280;8410;52.532;13.336;2023-04-29T13:03:06;101004.69;;;14.20;83.73
16595;BME280;8410;52.532;13.336;2023-04-29T13:05:40;101001.31;;;14.60;82.14